Time;durP1;ratioP1;P1;durP2;ratioP2;P2;SDS_P1;SDS_P2;PMS_P1;PMS_P2;Temp;Humidity;BMP_temperature;BMP_pressure;BME280_temperature;BME280_humidity;BME280_pressure;Samples;Min_cycle;Max_cycle;Signal;HPM_P1;HPM_P2
2023/12/01 00:01:30;;;;;;;36.38;19.92;;;;;;;4.26;89.42;99553.78;5133526;27;20109;-40
2023/12/01 00:03:55;;;;;;;36.95;19.50;;;;;;;4.27;88.22;99529.91;5133712;27;20028;-39
2023/12/01 00:06:21;;;;;;;43.17;19.55;;;;;;;4.37;88.18;99565.78;5133692;27;20034;-40
2023/12/01 00:08:46;;;;;;;36.13;18.13;;;;;;;4.09;87.96;99564.34;5133211;27;20027;-40
2023/12/01 00:11:12;;;;;;;33.97;19.25;;;;;;;3.95;89.32;99572.09;5132220;27;20038;-39
2023/12/01 00:13:38;;;;;;;36.03;19.08;;;;;;;3.82;89.55;99562.88;5133153;27;20106;-39
2023/12/01 00:16:03;;;;;;;41.10;21.02;;;;;;;3.75;90.79;99559.25;5133259;27;20030;-37
2023/12/01 00:18:29;;;;;;;32.15;19.15;;;;;;;3.77;90.05;99565.19;5133665;27;20031;-40
2023/12/01 00:20:54;;;;;;;37.55;20.30;;;;;;;3.67;90.05;99562.69;5133734;27;20064;-37
2023/12/01 00:23:20;;;;;;;37.63;19.42;;;;;;;3.79;89.57;99560.56;5133308;27;20463;-39
2023/12/01 00:25:45;;;;;;;38.13;19.77;;;;;;;3.74;89.58;99562.06;5133940;27;20047;-40
2023/12/01 00:28:11;;;;;;;38.15;20.08;;;;;;;3.86;89.69;99560.72;5133702;27;20554;-39
2023/12/01 00:30:37;;;;;;;38.92;20.55;;;;;;;3.97;89.97;99564.84;5133814;27;20050;-40
2023/12/01 00:33:02;;;;;;;37.83;20.60;;;;;;;3.73;90.08;99574.38;5133527;27;20434;-39
2023/12/01 00:35:28;;;;;;;34.42;19.65;;;;;;;3.65;90.72;99563.84;5133351;27;20038;-39
2023/12/01 00:37:53;;;;;;;37.92;19.73;;;;;;;3.66;91.10;99565.50;5133534;27;20515;-38
2023/12/01 00:40:20;;;;;;;35.88;19.30;;;;;;;3.52;90.83;99567.78;5133371;27;20066;-38
2023/12/01 00:42:45;;;;;;;40.97;20.80;;;;;;;3.41;92.11;99569.88;5133252;27;20052;-39
2023/12/01 00:45:10;;;;;;;34.78;19.10;;;;;;;3.51;91.98;99571.38;5132833;27;20023;-39
2023/12/01 00:47:36;;;;;;;37.92;20.48;;;;;;;3.43;92.55;99570.56;5133290;27;20080;-40
2023/12/01 00:50:02;;;;;;;38.88;19.38;;;;;;;3.48;92.63;99576.16;5133172;27;20208;-39
2023/12/01 00:52:28;;;;;;;35.97;19.48;;;;;;;3.42;92.02;99566.28;5115698;27;20042;-39
2023/12/01 00:54:54;;;;;;;37.85;19.30;;;;;;;3.78;91.52;99574.72;5112554;28;20158;-39
2023/12/01 00:57:19;;;;;;;38.78;19.55;;;;;;;3.65;90.80;99571.72;5112358;28;20023;-37
2023/12/01 00:59:44;;;;;;;38.72;19.90;;;;;;;3.67;91.60;99580.28;5124635;27;20031;-39
2023/12/01 01:02:10;;;;;;;35.65;19.00;;;;;;;3.46;91.12;99568.41;5132492;27;20496;-39
2023/12/01 01:04:35;;;;;;;34.17;18.85;;;;;;;3.64;91.01;99565.66;5132353;27;20119;-40
2023/12/01 01:07:00;;;;;;;33.75;18.30;;;;;;;3.73;90.54;99558.56;5132762;27;20021;-39
2023/12/01 01:09:26;;;;;;;38.45;20.10;;;;;;;3.86;89.54;99566.81;5132303;27;20087;-38
2023/12/01 01:11:51;;;;;;;35.75;19.15;;;;;;;3.58;89.86;99560.19;5132073;27;20066;-39
2023/12/01 01:14:17;;;;;;;37.92;18.67;;;;;;;3.70;90.61;99569.44;5132226;27;20019;-36
2023/12/01 01:16:42;;;;;;;37.17;18.88;;;;;;;3.63;90.37;99561.38;5132347;27;20023;-38
2023/12/01 01:19:08;;;;;;;38.97;19.83;;;;;;;3.47;91.22;99564.81;5132318;27;20046;-39
2023/12/01 01:21:33;;;;;;;40.95;20.77;;;;;;;3.72;91.53;99552.50;5131963;27;20507;-39
2023/12/01 01:23:58;;;;;;;35.88;19.50;;;;;;;3.81;90.13;99545.44;5131260;27;20011;-39
2023/12/01 01:26:24;;;;;;;33.72;18.60;;;;;;;3.52;90.91;99546.72;5132039;27;20098;-39
2023/12/01 01:28:49;;;;;;;33.47;18.67;;;;;;;3.51;90.80;99545.06;5131854;27;20007;-38
2023/12/01 01:31:15;;;;;;;32.10;17.85;;;;;;;3.43;91.30;99542.44;5131929;27;20046;-39
2023/12/01 01:33:40;;;;;;;34.70;18.48;;;;;;;3.36;92.05;99540.63;5131545;27;20068;-39
2023/12/01 01:36:06;;;;;;;36.75;18.55;;;;;;;3.41;91.79;99533.03;5131727;27;20019;-38
2023/12/01 01:38:32;;;;;;;35.30;18.45;;;;;;;3.53;91.19;99508.09;5129236;27;20460;-39
2023/12/01 01:40:57;;;;;;;42.45;20.48;;;;;;;3.37;91.70;99524.69;5132015;27;20023;-40
2023/12/01 01:43:23;;;;;;;32.08;18.95;;;;;;;3.43;91.66;99526.66;5132035;27;20019;-39
2023/12/01 01:46:09;;;;;;;37.17;19.15;;;;;;;3.28;91.90;99523.00;5131971;27;20027;-39
2023/12/01 01:48:34;;;;;;;43.53;18.65;;;;;;;3.33;92.31;99503.13;5131754;27;20452;-38
2023/12/01 01:51:01;;;;;;;34.75;18.77;;;;;;;3.32;91.74;99498.03;5132076;27;20019;-37
2023/12/01 01:53:28;;;;;;;37.72;17.55;;;;;;;3.43;90.41;99515.31;5132051;27;20088;-41
2023/12/01 01:55:57;;;;;;;34.00;18.70;;;;;;;3.60;90.97;99511.72;5131740;27;20067;-38
2023/12/01 01:58:24;;;;;;;34.38;17.77;;;;;;;3.41;91.52;99510.22;5131792;27;20398;-39
2023/12/01 02:00:50;;;;;;;34.42;18.40;;;;;;;3.42;91.87;99516.28;5132042;27;20106;-38
2023/12/01 02:03:20;;;;;;;35.33;18.38;;;;;;;3.35;91.48;99508.25;5131669;27;20487;-40
2023/12/01 02:05:49;;;;;;;;;;;;;;;3.36;91.32;99504.59;5131637;27;20023;-40
2023/12/01 02:08:24;;;;;;;38.28;19.65;;;;;;;3.25;91.72;99499.66;5131714;27;20035;-40
2023/12/01 02:10:51;;;;;;;36.75;18.52;;;;;;;3.40;90.92;99494.59;5131621;27;20026;-40
2023/12/01 02:13:16;;;;;;;31.52;17.85;;;;;;;3.23;91.22;99499.00;5131363;27;20435;-40
2023/12/01 02:15:42;;;;;;;38.25;18.27;;;;;;;3.39;90.78;99512.19;5131624;27;20106;-38
2023/12/01 02:18:24;;;;;;;34.40;18.10;;;;;;;3.36;90.13;99507.25;5131388;27;20052;-40
2023/12/01 02:20:51;;;;;;;31.20;17.38;;;;;;;3.11;90.95;99494.03;5131346;27;20027;-37
2023/12/01 02:23:17;;;;;;;33.03;18.15;;;;;;;3.03;91.66;99488.78;5131649;27;20099;-39
2023/12/01 02:25:42;;;;;;;35.25;18.23;;;;;;;3.52;90.85;99506.41;5131439;27;20084;-37
2023/12/01 02:28:08;;;;;;;32.28;17.65;;;;;;;3.37;89.76;99503.63;5131337;27;20027;-39
2023/12/01 02:30:33;;;;;;;31.58;17.52;;;;;;;3.31;90.86;99501.63;5131287;28;20028;-36
2023/12/01 02:32:59;;;;;;;34.15;17.25;;;;;;;3.42;90.17;99503.13;5131326;28;20027;-39
2023/12/01 02:35:34;;;;;;;32.35;16.75;;;;;;;3.20;90.32;99484.38;5133581;27;20030;-39
2023/12/01 02:37:59;;;;;;;28.90;16.60;;;;;;;3.27;89.67;99489.78;5135606;27;20029;-39
2023/12/01 02:40:27;;;;;;;31.67;17.38;;;;;;;3.24;90.14;99498.03;5135557;27;20019;-38
2023/12/01 02:42:53;;;;;;;32.05;17.83;;;;;;;2.97;90.76;99473.66;5122971;27;20042;-38
2023/12/01 02:45:20;;;;;;;37.97;17.50;;;;;;;3.18;90.32;99501.28;5114870;28;20023;-39
2023/12/01 02:47:47;;;;;;;34.67;17.77;;;;;;;3.39;88.86;99491.16;5115012;28;20469;-44
2023/12/01 02:50:16;;;;;;;29.73;16.60;;;;;;;3.29;88.37;99487.81;5114581;28;20034;-39
2023/12/01 02:52:42;;;;;;;33.58;17.48;;;;;;;3.26;89.01;99488.16;5122111;27;20092;-38
2023/12/01 02:55:08;;;;;;;34.13;18.80;;;;;;;3.35;90.11;99492.47;5134930;27;20475;-39
2023/12/01 02:57:41;;;;;;;34.00;18.20;;;;;;;3.23;91.12;99488.47;5135072;27;20027;-38
2023/12/01 03:00:13;;;;;;;30.58;17.23;;;;;;;3.26;89.41;99486.34;5131703;27;20054;-36
2023/12/01 03:02:40;;;;;;;32.53;16.98;;;;;;;3.05;89.58;99492.06;5114445;28;20030;-38
2023/12/01 03:05:07;;;;;;;31.88;17.73;;;;;;;3.04;90.49;99493.03;5114796;28;20075;-38
2023/12/01 03:07:32;;;;;;;34.08;18.30;;;;;;;3.32;90.83;99484.88;5114332;28;20170;-38
2023/12/01 03:09:58;;;;;;;35.00;19.23;;;;;;;3.48;90.62;99494.59;5113959;28;20035;-39
2023/12/01 03:12:23;;;;;;;35.00;18.38;;;;;;;3.38;88.96;99494.75;5117472;27;20027;-40
2023/12/01 03:14:49;;;;;;;36.28;19.20;;;;;;;3.12;89.59;99489.59;5134611;27;20132;-39
2023/12/01 03:17:14;;;;;;;38.55;19.05;;;;;;;3.03;90.19;99506.38;5134972;27;20102;-39
2023/12/01 03:19:39;;;;;;;34.88;19.13;;;;;;;3.03;90.91;99507.19;5134937;27;20161;-40
2023/12/01 03:22:05;;;;;;;34.42;18.20;;;;;;;2.96;91.19;99490.41;5134441;27;20019;-40
2023/12/01 03:24:30;;;;;;;38.83;18.63;;;;;;;3.16;90.43;99493.56;5134736;27;20019;-26
2023/12/01 03:26:56;;;;;;;40.47;20.42;;;;;;;2.79;91.84;99493.97;5134645;27;20094;-26
2023/12/01 03:29:21;;;;;;;32.08;18.27;;;;;;;2.84;92.66;99499.56;5134733;27;20056;-26
2023/12/01 03:31:46;;;;;;;35.33;18.70;;;;;;;2.98;92.65;99493.69;5115916;27;20443;-26
2023/12/01 03:34:12;;;;;;;31.90;18.33;;;;;;;2.90;92.53;99488.41;5115187;27;20023;-26
2023/12/01 03:36:37;;;;;;;31.92;17.33;;;;;;;3.12;92.19;99503.59;5133127;27;20026;-28
2023/12/01 03:39:03;;;;;;;31.38;16.80;;;;;;;2.99;91.54;99495.34;5133331;27;20449;-27
2023/12/01 03:41:28;;;;;;;33.70;17.35;;;;;;;3.07;92.22;99481.41;5133324;27;20022;-26
2023/12/01 03:43:54;;;;;;;30.33;16.98;;;;;;;3.04;92.63;99482.53;5114832;27;20455;-26
2023/12/01 03:46:19;;;;;;;33.20;17.00;;;;;;;3.08;92.61;99477.75;5114558;27;20065;-26
2023/12/01 03:48:44;;;;;;;29.27;16.63;;;;;;;3.08;91.93;99483.84;5133743;27;20023;-26
2023/12/01 03:51:11;;;;;;;28.98;16.10;;;;;;;3.04;91.77;99485.16;5134215;27;20443;-26
2023/12/01 03:53:37;;;;;;;29.88;16.30;;;;;;;3.11;91.82;99483.53;5134035;27;20023;-26
2023/12/01 03:56:03;;;;;;;29.13;15.77;;;;;;;3.17;90.76;99484.69;5128767;27;20055;-26
2023/12/01 03:58:29;;;;;;;28.38;15.25;;;;;;;3.20;90.54;99479.13;5113617;28;20114;-27
2023/12/01 04:00:54;;;;;;;26.30;14.80;;;;;;;3.15;90.00;99463.00;5119066;27;20106;-26
2023/12/01 04:03:20;;;;;;;28.65;15.00;;;;;;;3.15;90.41;99467.44;5114648;27;20451;-27
2023/12/01 04:05:46;;;;;;;27.90;15.00;;;;;;;3.12;91.06;99471.19;5151544;27;20486;-26
2023/12/01 04:08:12;;;;;;;28.98;15.00;;;;;;;3.23;91.08;99475.34;5149298;27;20103;-26
2023/12/01 04:10:37;;;;;;;24.27;13.50;;;;;;;3.36;89.58;99473.03;5154329;27;20450;-26
2023/12/01 04:13:07;;;;;;;26.23;14.38;;;;;;;3.32;90.18;99466.47;5138269;27;20076;-26
2023/12/01 04:15:34;;;;;;;24.88;13.90;;;;;;;3.29;90.13;99462.38;5113675;28;20027;-26
2023/12/01 04:18:06;;;;;;;24.40;13.63;;;;;;;3.26;90.04;99475.03;5113349;28;20091;-26
2023/12/01 04:20:36;;;;;;;26.40;13.93;;;;;;;3.27;89.64;99466.13;5113099;28;20468;-26
2023/12/01 04:23:11;;;;;;;26.40;12.90;;;;;;;3.15;90.47;99472.69;5113505;28;20113;-26
2023/12/01 04:25:40;;;;;;;21.60;12.13;;;;;;;3.07;90.83;99466.44;5113107;28;20066;-26
2023/12/01 04:28:07;;;;;;;23.55;13.18;;;;;;;3.13;91.01;99465.78;5129851;27;20125;-26
2023/12/01 04:30:34;;;;;;;25.55;13.35;;;;;;;3.32;89.79;99456.75;5139581;27;20095;-26
2023/12/01 04:33:00;;;;;;;26.48;14.48;;;;;;;3.76;89.46;99463.50;5144086;27;20474;-27
2023/12/01 04:35:30;;;;;;;22.85;13.55;;;;;;;3.59;88.08;99473.22;5136324;27;20023;-27
2023/12/01 04:37:57;;;;;;;22.95;13.20;;;;;;;3.44;89.64;99449.34;5139964;27;20094;-26
2023/12/01 04:40:24;;;;;;;24.45;14.75;;;;;;;3.39;90.33;99475.34;5133424;27;20035;-26
2023/12/01 04:42:57;;;;;;;28.38;13.48;;;;;;;3.41;90.08;99448.88;5133099;27;20054;-26
2023/12/01 04:45:33;;;;;;;28.20;13.65;;;;;;;3.41;91.21;99459.38;5133437;27;20027;-26
2023/12/01 04:47:58;;;;;;;30.73;14.32;;;;;;;3.50;90.70;99461.03;5133715;27;20027;-26
2023/12/01 04:50:28;;;;;;;24.25;13.55;;;;;;;3.37;90.61;99452.81;5133161;27;20034;-27
2023/12/01 04:52:57;;;;;;;;;;;;;;;3.75;89.93;99463.66;5133303;27;20092;-26
2023/12/01 04:55:25;;;;;;;27.63;14.95;;;;;;;3.61;90.07;99458.06;5132694;27;20007;-27
2023/12/01 04:57:51;;;;;;;26.98;15.20;;;;;;;3.58;89.60;99468.94;5125004;27;20483;-26
2023/12/01 05:00:21;;;;;;;31.52;15.93;;;;;;;3.49;89.69;99476.00;5119547;27;20035;-26
2023/12/01 05:03:00;;;;;;;30.33;15.52;;;;;;;3.51;90.56;99467.97;5133262;27;20023;-26
2023/12/01 05:05:28;;;;;;;26.97;14.07;;;;;;;3.43;90.01;99470.59;5132829;27;20574;-26
2023/12/01 05:07:57;;;;;;;25.50;14.63;;;;;;;3.53;89.60;99479.94;5131509;27;20038;-26
2023/12/01 05:10:24;;;;;;;32.88;16.88;;;;;;;3.59;89.54;99475.84;5131719;27;20118;-26
2023/12/01 05:12:54;;;;;;;31.33;16.20;;;;;;;3.75;88.87;99472.41;5131615;27;20429;-26
2023/12/01 05:15:24;;;;;;;26.63;15.48;;;;;;;3.83;89.66;99471.56;5132364;27;20078;-26
2023/12/01 05:17:51;;;;;;;28.30;15.02;;;;;;;4.77;86.23;99479.69;5130771;27;20171;-27
2023/12/01 05:20:18;;;;;;;26.38;13.98;;;;;;;4.83;83.77;99473.72;5131297;27;20034;-26
2023/12/01 05:22:52;;;;;;;23.42;13.90;;;;;;;5.20;82.31;99473.00;5131927;27;20101;-26
2023/12/01 05:25:18;;;;;;;21.92;13.30;;;;;;;5.40;80.61;99473.34;5132138;27;20069;-26
2023/12/01 05:27:49;;;;;;;24.20;13.05;;;;;;;5.19;81.40;99474.00;5133030;27;20026;-26
2023/12/01 05:30:16;;;;;;;22.17;12.55;;;;;;;4.43;83.86;99465.00;5132975;27;20031;-27
2023/12/01 05:32:44;;;;;;;22.40;12.57;;;;;;;4.57;85.23;99463.44;5131933;27;20413;-26
2023/12/01 05:35:10;;;;;;;19.85;11.80;;;;;;;4.81;83.41;99458.06;5131890;27;20046;-27
2023/12/01 05:37:39;;;;;;;25.98;12.65;;;;;;;5.40;80.43;99462.78;5131545;27;20027;-26
2023/12/01 05:40:06;;;;;;;23.00;12.63;;;;;;;5.57;79.55;99467.94;5131105;27;20027;-27
2023/12/01 05:42:33;;;;;;;23.27;12.00;;;;;;;5.71;78.07;99461.06;5131780;27;20050;-27
2023/12/01 05:44:58;;;;;;;19.35;11.68;;;;;;;5.68;78.12;99446.41;5126941;27;20517;-27
2023/12/01 05:47:24;;;;;;;26.98;13.75;;;;;;;5.98;76.47;99444.66;5111561;28;20114;-27
2023/12/01 05:49:50;;;;;;;23.92;13.35;;;;;;;6.23;75.26;99453.16;5111324;28;20028;-27
2023/12/01 05:52:15;;;;;;;20.83;12.80;;;;;;;6.19;75.82;99445.78;5112056;28;20050;-27
2023/12/01 05:54:41;;;;;;;19.83;12.32;;;;;;;6.21;75.26;99451.69;5111910;28;20074;-26
2023/12/01 05:57:06;;;;;;;22.13;13.13;;;;;;;6.32;82.41;99453.03;5121780;27;20107;-26
2023/12/01 05:59:32;;;;;;;18.92;11.82;;;;;;;6.42;77.27;99438.56;5132256;27;20031;-27
2023/12/01 06:01:59;;;;;;;17.25;11.02;;;;;;;6.29;76.49;99432.28;5132452;27;20031;-27
2023/12/01 06:04:25;;;;;;;18.63;11.73;;;;;;;6.18;79.05;99447.56;5132054;27;20098;-26
2023/12/01 06:06:50;;;;;;;21.15;12.77;;;;;;;6.28;78.36;99444.66;5132505;27;20114;-27
2023/12/01 06:09:17;;;;;;;21.60;13.30;;;;;;;6.62;79.27;99428.22;5132375;27;20034;-26
2023/12/01 06:11:43;;;;;;;20.10;12.38;;;;;;;6.79;75.54;99433.28;5133133;27;20023;-26
2023/12/01 06:14:08;;;;;;;33.85;18.65;;;;;;;6.89;74.60;99423.22;5132485;27;20380;-27
2023/12/01 06:16:34;;;;;;;18.48;11.93;;;;;;;6.18;76.06;99420.34;5132288;27;20019;-26
2023/12/01 06:18:59;;;;;;;20.27;12.18;;;;;;;5.23;80.04;99429.63;5132300;27;20486;-29
2023/12/01 06:21:25;;;;;;;21.83;12.45;;;;;;;5.22;82.76;99438.53;5132143;27;20166;-27
2023/12/01 06:23:50;;;;;;;25.75;16.23;;;;;;;5.66;80.10;99443.13;5132509;27;20047;-28
2023/12/01 06:26:16;;;;;;;23.23;13.43;;;;;;;5.11;82.36;99429.22;5132805;27;20027;-26
2023/12/01 06:28:41;;;;;;;25.45;13.90;;;;;;;4.79;84.71;99441.59;5132721;27;20106;-27
2023/12/01 06:31:07;;;;;;;28.00;15.48;;;;;;;5.11;83.88;99437.13;5132197;28;20479;-25
2023/12/01 06:33:32;;;;;;;33.00;17.80;;;;;;;5.05;81.80;99433.38;5132080;28;20532;-26
2023/12/01 06:35:58;;;;;;;39.60;20.38;;;;;;;4.67;84.05;99427.97;5132334;28;20082;-26
2023/12/01 06:38:24;;;;;;;37.42;21.08;;;;;;;4.44;84.90;99427.13;5131735;28;20030;-41
2023/12/01 06:40:49;;;;;;;42.75;20.52;;;;;;;4.37;84.81;99420.88;5132131;28;20019;-41
2023/12/01 06:43:15;;;;;;;40.97;21.27;;;;;;;4.67;84.33;99429.81;5132353;28;20034;-42
2023/12/01 06:45:41;;;;;;;45.25;24.73;;;;;;;5.24;83.90;99457.66;5132064;28;20030;-41
2023/12/01 06:48:08;;;;;;;42.22;22.55;;;;;;;4.84;85.76;99449.00;5132243;28;20086;-40
2023/12/01 06:50:33;;;;;;;39.70;19.50;;;;;;;8.48;96.79;99446.69;5132025;28;20035;-40
2023/12/01 06:53:00;;;;;;;36.60;20.17;;;;;;;7.30;76.35;99440.34;5131882;28;20083;-41
2023/12/01 06:55:26;;;;;;;38.22;21.13;;;;;;;6.65;77.65;99458.78;5131528;28;20058;-40
2023/12/01 06:57:51;;;;;;;38.63;21.30;;;;;;;5.71;79.70;99456.59;5132264;28;20027;-41
2023/12/01 07:00:32;;;;;;;38.65;20.55;;;;;;;5.81;80.32;99459.81;5132014;28;20033;-41
2023/12/01 07:02:59;;;;;;;37.47;20.73;;;;;;;6.23;79.88;99461.06;5131332;28;20023;-43
2023/12/01 07:05:29;;;;;;;39.35;22.10;;;;;;;6.14;78.35;99458.72;5131153;28;20080;-40
2023/12/01 07:07:58;;;;;;;;;;;;;;;6.30;80.53;99476.19;5131970;28;20149;-41
2023/12/01 07:10:24;;;;;;;41.80;21.58;;;;;;;6.86;78.22;99468.59;5131238;28;19923;-43
2023/12/01 07:12:50;;;;;;;34.85;19.13;;;;;;;7.18;76.47;99477.09;5131173;28;20163;-41
2023/12/01 07:15:20;;;;;;;30.15;17.08;;;;;;;7.41;75.05;99480.34;5131502;28;20478;-41
2023/12/01 07:17:46;;;;;;;;;;;;;;;7.39;75.31;99470.97;5131727;28;20459;-39
2023/12/01 07:20:14;;;;;;;31.95;17.80;;;;;;;7.48;73.92;99472.47;5131195;27;19991;-40
2023/12/01 07:22:42;;;;;;;30.20;16.70;;;;;;;7.48;73.04;99467.16;5134891;27;20023;-40
2023/12/01 07:25:21;;;;;;;27.48;15.93;;;;;;;7.75;73.58;99484.13;5135088;27;20038;-41
2023/12/01 07:27:50;;;;;;;29.25;15.77;;;;;;;8.27;71.03;99470.63;5135104;27;20390;-41
2023/12/01 07:30:16;;;;;;;24.15;14.88;;;;;;;8.51;69.65;99456.91;5134606;27;20042;-43
2023/12/01 07:32:46;;;;;;;23.52;14.63;;;;;;;8.51;69.37;99467.53;5134927;27;20062;-43
2023/12/01 07:35:15;;;;;;;25.15;14.82;;;;;;;7.73;72.03;99466.75;5135358;27;20030;-42
2023/12/01 07:37:44;;;;;;;26.92;15.63;;;;;;;7.30;74.88;99474.75;5135384;27;20031;-41
2023/12/01 07:40:19;;;;;;;27.92;15.48;;;;;;;7.15;75.31;99477.44;5134896;27;20019;-44
2023/12/01 07:42:48;;;;;;;24.98;14.55;;;;;;;6.98;75.91;99482.97;5126549;27;20026;-42
2023/12/01 07:45:17;;;;;;;27.08;14.73;;;;;;;7.05;76.61;99478.56;5135435;27;20030;-42
2023/12/01 07:47:55;;;;;;;23.63;13.77;;;;;;;6.84;77.89;99476.69;5135282;27;20027;-43
2023/12/01 07:50:21;;;;;;;22.42;13.15;;;;;;;6.90;78.86;99484.91;5134835;27;20276;-42
2023/12/01 07:52:49;;;;;;;23.30;14.18;;;;;;;6.94;77.25;99470.28;5134941;27;20030;-41
2023/12/01 07:55:15;;;;;;;22.38;13.73;;;;;;;7.29;76.73;99476.59;5134652;27;20059;-41
2023/12/01 07:57:41;;;;;;;22.20;14.00;;;;;;;7.57;74.91;99479.28;5134959;27;20065;-44
2023/12/01 08:00:14;;;;;;;24.52;14.23;;;;;;;7.36;75.62;99479.28;5134936;27;20051;-44
2023/12/01 08:02:47;;;;;;;25.42;14.43;;;;;;;7.31;76.51;99477.22;5133409;27;20059;-43
2023/12/01 08:05:16;;;;;;;21.30;12.88;;;;;;;7.79;75.43;99480.06;5134479;27;20030;-43
2023/12/01 08:07:46;;;;;;;23.88;13.35;;;;;;;8.09;74.49;99479.06;5134515;27;20088;-40
2023/12/01 08:10:15;;;;;;;22.83;12.95;;;;;;;8.70;71.55;99481.91;5134628;27;20034;-44
2023/12/01 08:12:47;;;;;;;23.13;12.02;;;;;;;8.44;71.40;99490.53;5134182;27;20027;-44
2023/12/01 08:15:13;;;;;;;19.83;11.80;;;;;;;8.26;71.81;99490.19;5134348;27;20099;-41
2023/12/01 08:17:39;;;;;;;21.75;12.07;;;;;;;8.07;72.05;99510.25;5134469;27;20023;-42
2023/12/01 08:20:06;;;;;;;22.95;12.60;;;;;;;8.04;73.39;99503.50;5134576;27;20029;-43
2023/12/01 08:22:32;;;;;;;22.95;12.73;;;;;;;8.64;71.82;99505.72;5134394;27;20037;-44
2023/12/01 08:24:57;;;;;;;19.77;12.07;;;;;;;8.25;71.29;99493.88;5134097;27;20023;-41
2023/12/01 08:27:23;;;;;;;19.85;11.55;;;;;;;8.16;72.29;99495.84;5134467;27;20042;-40
2023/12/01 08:29:50;;;;;;;17.70;11.13;;;;;;;8.25;72.40;99485.91;5134084;27;20106;-43
2023/12/01 08:32:15;;;;;;;17.70;10.48;;;;;;;8.27;72.90;99483.88;5132855;27;20054;-43
2023/12/01 08:34:41;;;;;;;18.65;11.20;;;;;;;8.62;71.64;99482.03;5134325;27;20074;-42
2023/12/01 08:37:07;;;;;;;18.13;10.65;;;;;;;9.30;68.87;99483.91;5133839;27;20436;-42
2023/12/01 08:39:32;;;;;;;22.38;11.23;;;;;;;9.07;69.08;99481.63;5133758;27;20083;-43
2023/12/01 08:41:57;;;;;;;18.15;11.18;;;;;;;8.80;70.00;99492.16;5133722;27;20038;-43
2023/12/01 08:44:23;;;;;;;18.67;10.63;;;;;;;8.66;70.70;99491.25;5133915;27;20542;-43
2023/12/01 08:46:48;;;;;;;17.95;11.02;;;;;;;8.95;70.29;99473.44;5133263;27;20536;-41
2023/12/01 08:49:14;;;;;;;23.17;12.13;;;;;;;9.52;68.22;99481.88;5133372;27;20414;-40
2023/12/01 08:51:39;;;;;;;20.70;11.63;;;;;;;9.16;69.30;99467.16;5133080;27;20015;-43
2023/12/01 08:54:05;;;;;;;17.98;10.90;;;;;;;9.35;69.27;99471.69;5133130;27;20106;-44
2023/12/01 08:56:34;;;;;;;21.67;11.25;;;;;;;9.56;68.10;99448.63;5133632;27;20027;-42
2023/12/01 08:59:00;;;;;;;22.95;11.07;;;;;;;9.96;66.75;99464.53;5133727;27;20026;-44
2023/12/01 09:01:26;;;;;;;18.40;10.23;;;;;;;10.58;65.26;99454.38;5133793;27;20031;-43
2023/12/01 09:03:51;;;;;;;16.33;10.70;;;;;;;10.56;64.98;99461.78;5133173;27;20475;-45
2023/12/01 09:06:18;;;;;;;18.45;10.65;;;;;;;10.20;67.05;99446.28;5133396;27;20058;-45
2023/12/01 09:08:43;;;;;;;17.80;11.02;;;;;;;10.78;64.40;99451.66;5133072;27;20027;-42
2023/12/01 09:11:09;;;;;;;17.02;10.52;;;;;;;11.10;62.97;99427.72;5133483;27;20019;-46
2023/12/01 09:13:36;;;;;;;16.88;10.43;;;;;;;10.95;62.15;99415.53;5133005;27;20027;-41
2023/12/01 09:16:02;;;;;;;16.88;10.27;;;;;;;11.05;62.56;99409.72;5133166;27;20473;-44
2023/12/01 09:18:29;;;;;;;15.77;9.75;;;;;;;11.21;60.80;99412.91;5132672;27;20020;-43
2023/12/01 09:20:55;;;;;;;16.55;9.98;;;;;;;11.03;61.72;99390.50;5132910;27;20033;-43
2023/12/01 09:23:20;;;;;;;15.02;9.52;;;;;;;11.51;60.78;99391.78;5133016;27;20098;-41
2023/12/01 09:25:46;;;;;;;18.23;10.73;;;;;;;11.30;61.22;99404.44;5132945;27;20027;-43
2023/12/01 09:28:11;;;;;;;16.90;10.23;;;;;;;10.88;62.17;99404.09;5132984;27;20023;-43
2023/12/01 09:30:37;;;;;;;16.60;9.95;;;;;;;10.44;64.14;99415.56;5132788;27;20494;-43
2023/12/01 09:33:02;;;;;;;26.35;15.20;;;;;;;10.95;63.68;99420.84;5132828;27;20034;-46
2023/12/01 09:35:28;;;;;;;45.92;29.77;;;;;;;11.73;61.83;99438.34;5132561;27;20019;-46
2023/12/01 09:37:53;;;;;;;16.38;11.02;;;;;;;11.82;60.80;99408.72;5132690;27;20031;-41
2023/12/01 09:40:19;;;;;;;19.98;10.57;;;;;;;12.52;59.01;99411.88;5132847;27;20023;-40
2023/12/01 09:42:48;;;;;;;18.15;11.40;;;;;;;12.57;57.96;99399.75;5132576;27;20140;-42
2023/12/01 09:45:20;;;;;;;19.80;11.27;;;;;;;11.82;60.09;99408.72;5132136;27;20506;-44
2023/12/01 09:48:02;;;;;;;26.42;12.02;;;;;;;12.42;59.76;99410.81;5132351;27;20546;-42
2023/12/01 09:50:27;;;;;;;23.13;11.25;;;;;;;12.16;59.58;99393.25;5132658;27;20058;-43
2023/12/01 09:52:53;;;;;;;20.67;12.52;;;;;;;12.06;59.59;99397.22;5131905;27;20062;-43
2023/12/01 09:55:19;;;;;;;20.70;12.07;;;;;;;12.54;59.01;99395.66;5132418;27;20076;-43
2023/12/01 09:57:45;;;;;;;17.75;10.98;;;;;;;13.07;56.57;99391.44;5132259;27;20027;-41
2023/12/01 10:00:11;;;;;;;16.85;11.27;;;;;;;12.39;58.52;99392.56;5131978;27;20376;-43
2023/12/01 10:02:38;;;;;;;17.65;11.60;;;;;;;12.23;59.49;99399.31;5132218;27;20027;-41
2023/12/01 10:05:05;;;;;;;17.98;11.00;;;;;;;12.39;57.63;99388.03;5131868;27;20027;-45
2023/12/01 10:07:30;;;;;;;22.00;11.38;;;;;;;11.90;59.50;99387.16;5131934;27;20023;-40
2023/12/01 10:09:55;;;;;;;20.10;11.35;;;;;;;11.61;60.87;99378.75;5132264;27;20038;-46
2023/12/01 10:12:21;;;;;;;20.55;11.65;;;;;;;11.71;61.40;99381.75;5132006;27;20109;-41
2023/12/01 10:14:46;;;;;;;19.00;11.15;;;;;;;12.67;58.69;99360.78;5132329;27;20102;-42
2023/12/01 10:17:12;;;;;;;22.15;11.75;;;;;;;13.35;56.33;99357.97;5132141;27;20042;-43
2023/12/01 10:19:48;;;;;;;19.60;12.00;;;;;;;13.58;55.66;99359.84;5131972;27;20023;-43
2023/12/01 10:22:17;;;;;;;19.63;11.88;;;;;;;13.70;55.43;99357.97;5132083;27;20023;-44
2023/12/01 10:25:03;;;;;;;19.30;11.57;;;;;;;13.91;54.61;99369.13;5132248;27;20142;-44
2023/12/01 10:27:29;;;;;;;20.63;12.45;;;;;;;14.04;54.32;99352.81;5132264;27;20110;-43
2023/12/01 10:30:12;;;;;;;18.05;11.88;;;;;;;14.07;53.78;99339.78;5131958;27;20075;-41
2023/12/01 10:32:38;;;;;;;19.45;11.73;;;;;;;14.01;53.40;99330.03;5131808;28;20529;-41
2023/12/01 10:35:07;;;;;;;22.85;12.68;;;;;;;14.25;53.35;99335.31;5131865;28;20028;-44
2023/12/01 10:37:36;;;;;;;20.48;12.80;;;;;;;14.16;53.11;99342.91;5131878;28;20023;-43
2023/12/01 10:40:05;;;;;;;22.13;12.65;;;;;;;14.32;53.40;99362.78;5131924;28;20027;-43
2023/12/01 10:42:34;;;;;;;21.02;12.45;;;;;;;14.43;52.65;99369.94;5131660;28;20017;-41
2023/12/01 10:45:01;;;;;;;23.77;13.18;;;;;;;14.61;52.02;99368.16;5131687;28;20030;-43
2023/12/01 10:47:27;;;;;;;22.83;12.77;;;;;;;14.70;52.55;99344.47;5131762;28;20422;-41
2023/12/01 10:49:56;;;;;;;20.67;12.02;;;;;;;14.76;51.56;99348.91;5131576;28;20106;-41
2023/12/01 10:52:23;;;;;;;19.23;12.37;;;;;;;14.68;51.58;99371.53;5131374;28;20066;-42
2023/12/01 10:54:49;;;;;;;21.25;11.88;;;;;;;14.77;51.70;99379.97;5131417;27;20292;-40
2023/12/01 10:57:31;;;;;;;20.42;12.70;;;;;;;14.58;51.79;99358.75;5135410;27;20080;-40
2023/12/01 11:00:00;;;;;;;19.52;12.43;;;;;;;14.82;52.09;99359.44;5133903;27;20015;-40
2023/12/01 11:02:25;;;;;;;19.67;12.50;;;;;;;14.98;51.10;99343.66;5133645;27;20368;-40
2023/12/01 11:04:51;;;;;;;18.75;12.32;;;;;;;15.08;51.80;99354.56;5133520;27;20068;-40
2023/12/01 11:07:16;;;;;;;23.30;11.80;;;;;;;15.08;51.61;99357.22;5133392;27;20019;-45
2023/12/01 11:10:06;;;;;;;19.48;12.18;;;;;;;15.22;51.04;99361.22;5133800;27;20050;-41
2023/12/01 11:12:44;;;;;;;21.83;12.45;;;;;;;14.82;52.43;99356.78;5133678;27;20035;-37
2023/12/01 11:15:37;;;;;;;18.55;11.43;;;;;;;15.00;52.25;99353.09;5135470;27;20114;-43
2023/12/01 11:18:07;;;;;;;23.00;12.00;;;;;;;14.40;53.01;99362.38;5131695;27;20035;-41
2023/12/01 11:20:34;;;;;;;;;;;;;;;14.89;51.60;99367.34;5136147;27;20046;-41
2023/12/01 11:23:25;;;;;;;22.45;12.38;;;;;;;14.89;52.91;99355.81;5135846;27;19921;-44
2023/12/01 11:25:56;;;;;;;20.77;11.93;;;;;;;14.45;53.22;99343.75;5135643;27;20111;-40